sensor_id;sensor_type;location;lat;lon;timestamp;temperature;humidity
77727;SHT30;68312;53.502;10.030;2023-07-20T00:02:04;13.01;91.41
77727;SHT30;68312;53.502;10.030;2023-07-20T00:04:31;13.04;91.49
77727;SHT30;68312;53.502;10.030;2023-07-20T00:06:56;13.08;91.56
77727;SHT30;68312;53.502;10.030;2023-07-20T00:09:21;13.10;91.58
77727;SHT30;68312;53.502;10.030;2023-07-20T00:11:52;13.15;91.56
77727;SHT30;68312;53.502;10.030;2023-07-20T00:14:19;13.18;91.62
77727;SHT30;68312;53.502;10.030;2023-07-20T00:16:50;13.18;91.61
77727;SHT30;68312;53.502;10.030;2023-07-20T00:19:23;13.21;91.73
77727;SHT30;68312;53.502;10.030;2023-07-20T00:21:48;13.28;91.69
77727;SHT30;68312;53.502;10.030;2023-07-20T00:24:14;13.34;91.61
77727;SHT30;68312;53.502;10.030;2023-07-20T00:26:39;13.38;91.58
77727;SHT30;68312;53.502;10.030;2023-07-20T00:29:05;13.45;91.53
77727;SHT30;68312;53.502;10.030;2023-07-20T00:31:30;13.49;91.41
77727;SHT30;68312;53.502;10.030;2023-07-20T00:33:56;13.55;91.14
77727;SHT30;68312;53.502;10.030;2023-07-20T00:36:21;13.63;90.98
77727;SHT30;68312;53.502;10.030;2023-07-20T00:38:47;13.63;90.67
77727;SHT30;68312;53.502;10.030;2023-07-20T00:41:12;13.74;90.55
77727;SHT30;68312;53.502;10.030;2023-07-20T00:43:38;13.77;90.37
77727;SHT30;68312;53.502;10.030;2023-07-20T00:46:04;13.77;90.19
77727;SHT30;68312;53.502;10.030;2023-07-20T00:48:31;13.82;89.29
77727;SHT30;68312;53.502;10.030;2023-07-20T00:50:59;13.86;89.18
77727;SHT30;68312;53.502;10.030;2023-07-20T00:53:26;13.90;89.15
77727;SHT30;68312;53.502;10.030;2023-07-20T00:55:52;13.90;89.18
77727;SHT30;68312;53.502;10.030;2023-07-20T00:58:17;13.93;88.52
77727;SHT30;68312;53.502;10.030;2023-07-20T01:00:43;13.99;88.55
77727;SHT30;68312;53.502;10.030;2023-07-20T01:03:08;13.99;88.51
77727;SHT30;68312;53.502;10.030;2023-07-20T01:14:10;14.10;89.16
77727;SHT30;68312;53.502;10.030;2023-07-20T01:16:36;14.04;89.21
77727;SHT30;68312;53.502;10.030;2023-07-20T01:19:02;14.00;89.48
77727;SHT30;68312;53.502;10.030;2023-07-20T01:22:02;13.97;89.85
77727;SHT30;68312;53.502;10.030;2023-07-20T01:33:11;13.70;91.53
77727;SHT30;68312;53.502;10.030;2023-07-20T01:35:39;13.67;91.92
77727;SHT30;68312;53.502;10.030;2023-07-20T01:38:08;13.59;92.23
77727;SHT30;68312;53.502;10.030;2023-07-20T01:40:34;13.58;92.56
77727;SHT30;68312;53.502;10.030;2023-07-20T01:43:00;13.56;92.71
77727;SHT30;68312;53.502;10.030;2023-07-20T01:45:54;13.53;92.77
77727;SHT30;68312;53.502;10.030;2023-07-20T01:48:20;13.52;92.90
77727;SHT30;68312;53.502;10.030;2023-07-20T01:50:45;13.51;93.12
77727;SHT30;68312;53.502;10.030;2023-07-20T01:53:11;13.48;93.14
77727;SHT30;68312;53.502;10.030;2023-07-20T01:55:36;13.45;93.26
77727;SHT30;68312;53.502;10.030;2023-07-20T01:58:02;13.46;93.36
77727;SHT30;68312;53.502;10.030;2023-07-20T02:00:28;13.46;93.60
77727;SHT30;68312;53.502;10.030;2023-07-20T02:02:54;13.46;93.56
77727;SHT30;68312;53.502;10.030;2023-07-20T02:05:19;13.48;93.67
77727;SHT30;68312;53.502;10.030;2023-07-20T02:07:45;13.44;93.69
77727;SHT30;68312;53.502;10.030;2023-07-20T02:10:10;13.45;93.77
77727;SHT30;68312;53.502;10.030;2023-07-20T02:12:36;13.41;93.86
77727;SHT30;68312;53.502;10.030;2023-07-20T02:15:03;13.42;94.00
77727;SHT30;68312;53.502;10.030;2023-07-20T02:17:28;13.42;94.00
77727;SHT30;68312;53.502;10.030;2023-07-20T02:19:55;13.41;94.08
77727;SHT30;68312;53.502;10.030;2023-07-20T02:22:21;13.44;94.29
77727;SHT30;68312;53.502;10.030;2023-07-20T02:24:47;13.46;94.42
77727;SHT30;68312;53.502;10.030;2023-07-20T02:27:12;13.48;94.55
77727;SHT30;68312;53.502;10.030;2023-07-20T02:29:38;13.44;94.58
77727;SHT30;68312;53.502;10.030;2023-07-20T02:32:04;13.44;94.60
77727;SHT30;68312;53.502;10.030;2023-07-20T02:34:58;13.41;94.75
77727;SHT30;68312;53.502;10.030;2023-07-20T02:37:24;13.45;94.99
77727;SHT30;68312;53.502;10.030;2023-07-20T02:39:50;13.42;94.96
77727;SHT30;68312;53.502;10.030;2023-07-20T02:42:15;13.38;94.96
77727;SHT30;68312;53.502;10.030;2023-07-20T02:44:40;13.41;95.02
77727;SHT30;68312;53.502;10.030;2023-07-20T02:47:06;13.34;95.05
77727;SHT30;68312;53.502;10.030;2023-07-20T02:49:31;13.36;95.08
77727;SHT30;68312;53.502;10.030;2023-07-20T02:51:57;13.36;95.11
77727;SHT30;68312;53.502;10.030;2023-07-20T02:54:22;13.35;95.14
77727;SHT30;68312;53.502;10.030;2023-07-20T02:56:48;13.34;95.14
77727;SHT30;68312;53.502;10.030;2023-07-20T02:59:13;13.35;95.23
77727;SHT30;68312;53.502;10.030;2023-07-20T03:01:39;13.32;95.26
77727;SHT30;68312;53.502;10.030;2023-07-20T03:04:04;13.29;95.29
77727;SHT30;68312;53.502;10.030;2023-07-20T03:06:30;13.25;95.26
77727;SHT30;68312;53.502;10.030;2023-07-20T03:08:55;13.25;95.31
77727;SHT30;68312;53.502;10.030;2023-07-20T03:11:21;13.25;95.35
77727;SHT30;68312;53.502;10.030;2023-07-20T03:13:48;13.26;95.41
77727;SHT30;68312;53.502;10.030;2023-07-20T03:16:17;13.24;95.43
77727;SHT30;68312;53.502;10.030;2023-07-20T03:18:43;13.25;95.50
77727;SHT30;68312;53.502;10.030;2023-07-20T03:21:10;13.25;95.47
77727;SHT30;68312;53.502;10.030;2023-07-20T03:23:39;13.28;95.50
77727;SHT30;68312;53.502;10.030;2023-07-20T03:26:05;13.25;95.49
77727;SHT30;68312;53.502;10.030;2023-07-20T03:28:36;13.21;95.27
77727;SHT30;68312;53.502;10.030;2023-07-20T03:31:02;13.19;95.21
77727;SHT30;68312;53.502;10.030;2023-07-20T03:33:29;13.18;95.15
77727;SHT30;68312;53.502;10.030;2023-07-20T03:35:56;13.19;95.22
77727;SHT30;68312;53.502;10.030;2023-07-20T03:38:22;13.18;95.21
77727;SHT30;68312;53.502;10.030;2023-07-20T03:40:58;13.19;95.14
77727;SHT30;68312;53.502;10.030;2023-07-20T03:43:26;13.22;95.11
77727;SHT30;68312;53.502;10.030;2023-07-20T03:45:52;13.22;94.97
77727;SHT30;68312;53.502;10.030;2023-07-20T03:48:20;13.21;94.94
77727;SHT30;68312;53.502;10.030;2023-07-20T03:50:48;13.22;94.94
77727;SHT30;68312;53.502;10.030;2023-07-20T03:53:15;13.25;94.96
77727;SHT30;68312;53.502;10.030;2023-07-20T03:55:44;13.25;94.99
77727;SHT30;68312;53.502;10.030;2023-07-20T03:58:11;13.26;95.02
77727;SHT30;68312;53.502;10.030;2023-07-20T04:00:37;13.26;95.05
77727;SHT30;68312;53.502;10.030;2023-07-20T04:03:02;13.29;95.07
77727;SHT30;68312;53.502;10.030;2023-07-20T04:05:28;13.31;95.05
77727;SHT30;68312;53.502;10.030;2023-07-20T04:07:53;13.32;95.02
77727;SHT30;68312;53.502;10.030;2023-07-20T04:10:19;13.32;95.02
77727;SHT30;68312;53.502;10.030;2023-07-20T04:12:45;13.35;94.97
77727;SHT30;68312;53.502;10.030;2023-07-20T04:15:49;13.39;94.84
77727;SHT30;68312;53.502;10.030;2023-07-20T04:18:14;13.42;94.61
77727;SHT30;68312;53.502;10.030;2023-07-20T04:20:40;13.44;94.71
77727;SHT30;68312;53.502;10.030;2023-07-20T04:23:06;13.52;94.81
77727;SHT30;68312;53.502;10.030;2023-07-20T04:25:31;13.53;94.89
77727;SHT30;68312;53.502;10.030;2023-07-20T04:28:04;13.53;94.79
77727;SHT30;68312;53.502;10.030;2023-07-20T04:30:29;13.55;94.65
77727;SHT30;68312;53.502;10.030;2023-07-20T04:32:55;13.58;94.61
77727;SHT30;68312;53.502;10.030;2023-07-20T04:35:52;13.61;94.58
77727;SHT30;68312;53.502;10.030;2023-07-20T04:38:20;13.65;94.52
77727;SHT30;68312;53.502;10.030;2023-07-20T04:40:48;13.65;94.62
77727;SHT30;68312;53.502;10.030;2023-07-20T04:43:14;13.63;94.34
77727;SHT30;68312;53.502;10.030;2023-07-20T04:45:40;13.63;94.24
77727;SHT30;68312;53.502;10.030;2023-07-20T04:48:11;13.63;94.17
77727;SHT30;68312;53.502;10.030;2023-07-20T04:50:38;13.66;94.26
77727;SHT30;68312;53.502;10.030;2023-07-20T04:53:04;13.66;94.23
77727;SHT30;68312;53.502;10.030;2023-07-20T04:55:30;13.73;94.22
77727;SHT30;68312;53.502;10.030;2023-07-20T04:57:55;13.77;94.19
77727;SHT30;68312;53.502;10.030;2023-07-20T05:00:21;13.90;94.25
77727;SHT30;68312;53.502;10.030;2023-07-20T05:02:47;13.90;93.92
77727;SHT30;68312;53.502;10.030;2023-07-20T05:05:15;13.96;93.87
77727;SHT30;68312;53.502;10.030;2023-07-20T05:07:40;14.03;93.93
77727;SHT30;68312;53.502;10.030;2023-07-20T05:10:06;13.99;93.53
77727;SHT30;68312;53.502;10.030;2023-07-20T05:12:32;13.91;93.42
77727;SHT30;68312;53.502;10.030;2023-07-20T05:14:57;13.87;93.39
77727;SHT30;68312;53.502;10.030;2023-07-20T05:17:23;13.86;93.66
77727;SHT30;68312;53.502;10.030;2023-07-20T05:19:50;13.90;93.86
77727;SHT30;68312;53.502;10.030;2023-07-20T05:22:16;13.91;93.97
77727;SHT30;68312;53.502;10.030;2023-07-20T05:24:41;13.96;94.08
77727;SHT30;68312;53.502;10.030;2023-07-20T05:27:07;14.00;93.87
77727;SHT30;68312;53.502;10.030;2023-07-20T05:29:32;14.02;93.87
77727;SHT30;68312;53.502;10.030;2023-07-20T05:32:29;14.07;94.15
77727;SHT30;68312;53.502;10.030;2023-07-20T05:34:54;14.13;94.09
77727;SHT30;68312;53.502;10.030;2023-07-20T05:37:20;14.18;93.96
77727;SHT30;68312;53.502;10.030;2023-07-20T05:39:47;14.21;93.84
77727;SHT30;68312;53.502;10.030;2023-07-20T05:42:12;14.30;93.91
77727;SHT30;68312;53.502;10.030;2023-07-20T05:44:39;14.35;93.62
77727;SHT30;68312;53.502;10.030;2023-07-20T05:47:14;14.42;93.54
77727;SHT30;68312;53.502;10.030;2023-07-20T05:49:39;14.41;92.56
77727;SHT30;68312;53.502;10.030;2023-07-20T05:52:05;14.51;92.27
77727;SHT30;68312;53.502;10.030;2023-07-20T05:54:30;14.54;92.18
77727;SHT30;68312;53.502;10.030;2023-07-20T05:56:56;14.61;92.50
77727;SHT30;68312;53.502;10.030;2023-07-20T05:59:21;14.69;92.59
77727;SHT30;68312;53.502;10.030;2023-07-20T06:01:49;14.71;92.15
77727;SHT30;68312;53.502;10.030;2023-07-20T06:04:15;14.81;92.27
77727;SHT30;68312;53.502;10.030;2023-07-20T06:06:42;14.79;92.15
77727;SHT30;68312;53.502;10.030;2023-07-20T06:09:07;14.85;91.77
77727;SHT30;68312;53.502;10.030;2023-07-20T06:11:38;14.93;91.52
77727;SHT30;68312;53.502;10.030;2023-07-20T06:14:03;14.98;91.21
77727;SHT30;68312;53.502;10.030;2023-07-20T06:16:29;15.06;90.97
77727;SHT30;68312;53.502;10.030;2023-07-20T06:18:55;15.18;91.51
77727;SHT30;68312;53.502;10.030;2023-07-20T06:25:01;15.57;89.28
77727;SHT30;68312;53.502;10.030;2023-07-20T06:27:27;15.68;87.46
77727;SHT30;68312;53.502;10.030;2023-07-20T06:29:52;15.57;86.25
77727;SHT30;68312;53.502;10.030;2023-07-20T06:32:18;15.75;88.73
77727;SHT30;68312;53.502;10.030;2023-07-20T06:34:43;15.89;85.87
77727;SHT30;68312;53.502;10.030;2023-07-20T06:37:08;15.82;84.50
77727;SHT30;68312;53.502;10.030;2023-07-20T06:39:34;15.89;84.30
77727;SHT30;68312;53.502;10.030;2023-07-20T06:41:59;16.23;86.19
77727;SHT30;68312;53.502;10.030;2023-07-20T06:44:25;16.40;83.75
77727;SHT30;68312;53.502;10.030;2023-07-20T06:46:50;16.52;83.88
77727;SHT30;68312;53.502;10.030;2023-07-20T06:49:26;16.49;80.49
77727;SHT30;68312;53.502;10.030;2023-07-20T06:51:53;16.28;81.71
77727;SHT30;68312;53.502;10.030;2023-07-20T06:54:18;16.34;83.73
77727;SHT30;68312;53.502;10.030;2023-07-20T06:56:43;16.25;81.65
77727;SHT30;68312;53.502;10.030;2023-07-20T06:59:10;16.30;81.35
77727;SHT30;68312;53.502;10.030;2023-07-20T07:01:35;16.50;82.44
77727;SHT30;68312;53.502;10.030;2023-07-20T07:04:01;16.67;79.87
77727;SHT30;68312;53.502;10.030;2023-07-20T07:06:26;16.95;80.36
77727;SHT30;68312;53.502;10.030;2023-07-20T07:08:53;17.04;78.64
77727;SHT30;68312;53.502;10.030;2023-07-20T07:11:18;17.15;77.63
77727;SHT30;68312;53.502;10.030;2023-07-20T07:13:44;17.10;78.36
77727;SHT30;68312;53.502;10.030;2023-07-20T07:16:12;17.19;78.82
77727;SHT30;68312;53.502;10.030;2023-07-20T07:18:39;17.53;78.58
77727;SHT30;68312;53.502;10.030;2023-07-20T07:21:05;17.63;77.61
77727;SHT30;68312;53.502;10.030;2023-07-20T07:23:31;17.25;76.79
77727;SHT30;68312;53.502;10.030;2023-07-20T07:25:56;16.78;75.47
77727;SHT30;68312;53.502;10.030;2023-07-20T07:28:21;16.60;77.15
77727;SHT30;68312;53.502;10.030;2023-07-20T07:30:47;16.29;77.49
77727;SHT30;68312;53.502;10.030;2023-07-20T07:33:12;16.23;77.40
77727;SHT30;68312;53.502;10.030;2023-07-20T07:39:19;17.11;75.70
77727;SHT30;68312;53.502;10.030;2023-07-20T07:41:45;17.82;75.63
77727;SHT30;68312;53.502;10.030;2023-07-20T07:44:11;18.45;74.44
77727;SHT30;68312;53.502;10.030;2023-07-20T07:46:37;17.91;68.21
77727;SHT30;68312;53.502;10.030;2023-07-20T07:49:02;17.53;70.91
77727;SHT30;68312;53.502;10.030;2023-07-20T07:51:27;17.11;70.69
77727;SHT30;68312;53.502;10.030;2023-07-20T07:53:53;16.81;71.94
77727;SHT30;68312;53.502;10.030;2023-07-20T07:56:18;17.18;71.12
77727;SHT30;68312;53.502;10.030;2023-07-20T07:58:51;17.65;68.58
77727;SHT30;68312;53.502;10.030;2023-07-20T08:01:17;17.87;67.91
77727;SHT30;68312;53.502;10.030;2023-07-20T08:03:45;18.52;69.56
77727;SHT30;68312;53.502;10.030;2023-07-20T08:06:15;18.93;65.87
77727;SHT30;68312;53.502;10.030;2023-07-20T08:08:41;19.23;65.58
77727;SHT30;68312;53.502;10.030;2023-07-20T08:11:08;18.81;62.55
77727;SHT30;68312;53.502;10.030;2023-07-20T08:13:33;18.65;66.78
77727;SHT30;68312;53.502;10.030;2023-07-20T08:15:59;19.06;63.47
77727;SHT30;68312;53.502;10.030;2023-07-20T08:18:24;19.67;60.04
77727;SHT30;68312;53.502;10.030;2023-07-20T08:20:50;19.64;61.32
77727;SHT30;68312;53.502;10.030;2023-07-20T08:23:15;19.88;60.05
77727;SHT30;68312;53.502;10.030;2023-07-20T08:25:41;20.34;61.73
77727;SHT30;68312;53.502;10.030;2023-07-20T08:28:14;20.74;57.04
77727;SHT30;68312;53.502;10.030;2023-07-20T08:30:46;20.20;57.82
77727;SHT30;68312;53.502;10.030;2023-07-20T08:33:15;20.40;56.15
77727;SHT30;68312;53.502;10.030;2023-07-20T08:35:41;20.66;55.51
77727;SHT30;68312;53.502;10.030;2023-07-20T08:38:07;21.04;53.43
77727;SHT30;68312;53.502;10.030;2023-07-20T08:40:44;21.52;51.06
77727;SHT30;68312;53.502;10.030;2023-07-20T08:43:11;22.56;49.90
77727;SHT30;68312;53.502;10.030;2023-07-20T08:45:39;22.14;49.21
77727;SHT30;68312;53.502;10.030;2023-07-20T08:48:06;22.98;48.80
77727;SHT30;68312;53.502;10.030;2023-07-20T08:50:33;21.90;49.28
77727;SHT30;68312;53.502;10.030;2023-07-20T08:53:00;20.67;53.36
77727;SHT30;68312;53.502;10.030;2023-07-20T08:56:13;19.98;57.44
77727;SHT30;68312;53.502;10.030;2023-07-20T08:58:41;19.31;60.74
77727;SHT30;68312;53.502;10.030;2023-07-20T09:01:07;19.70;59.10
77727;SHT30;68312;53.502;10.030;2023-07-20T09:03:32;19.65;58.68
77727;SHT30;68312;53.502;10.030;2023-07-20T09:05:58;21.25;55.49
77727;SHT30;68312;53.502;10.030;2023-07-20T09:08:24;22.30;51.04
77727;SHT30;68312;53.502;10.030;2023-07-20T09:10:49;23.65;47.30
77727;SHT30;68312;53.502;10.030;2023-07-20T09:13:15;24.64;45.61
77727;SHT30;68312;53.502;10.030;2023-07-20T09:16:01;24.30;44.94
77727;SHT30;68312;53.502;10.030;2023-07-20T09:18:31;25.15;45.89
77727;SHT30;68312;53.502;10.030;2023-07-20T09:21:04;25.83;41.43
77727;SHT30;68312;53.502;10.030;2023-07-20T09:23:38;24.18;42.69
77727;SHT30;68312;53.502;10.030;2023-07-20T09:26:10;24.20;44.94
77727;SHT30;68312;53.502;10.030;2023-07-20T09:28:50;24.84;45.48
77727;SHT30;68312;53.502;10.030;2023-07-20T09:31:21;23.34;44.86
77727;SHT30;68312;53.502;10.030;2023-07-20T09:33:49;22.45;47.76
77727;SHT30;68312;53.502;10.030;2023-07-20T09:36:15;23.49;48.47
77727;SHT30;68312;53.502;10.030;2023-07-20T09:38:44;24.13;45.39
77727;SHT30;68312;53.502;10.030;2023-07-20T09:41:17;22.11;50.04
77727;SHT30;68312;53.502;10.030;2023-07-20T09:43:46;20.12;61.00
77727;SHT30;68312;53.502;10.030;2023-07-20T09:46:12;19.12;67.46
77727;SHT30;68312;53.502;10.030;2023-07-20T09:48:37;18.11;70.02
77727;SHT30;68312;53.502;10.030;2023-07-20T09:51:03;17.47;72.89
77727;SHT30;68312;53.502;10.030;2023-07-20T09:53:33;16.64;73.43
77727;SHT30;68312;53.502;10.030;2023-07-20T09:55:59;16.63;77.96
77727;SHT30;68312;53.502;10.030;2023-07-20T09:58:26;16.71;77.74
77727;SHT30;68312;53.502;10.030;2023-07-20T10:00:56;17.05;78.46
77727;SHT30;68312;53.502;10.030;2023-07-20T10:03:29;17.94;72.10
77727;SHT30;68312;53.502;10.030;2023-07-20T10:09:39;21.90;60.32
77727;SHT30;68312;53.502;10.030;2023-07-20T10:12:07;22.47;57.95
77727;SHT30;68312;53.502;10.030;2023-07-20T10:14:39;22.59;54.85
77727;SHT30;68312;53.502;10.030;2023-07-20T10:17:07;22.72;53.98
77727;SHT30;68312;53.502;10.030;2023-07-20T10:19:46;22.83;61.64
77727;SHT30;68312;53.502;10.030;2023-07-20T10:22:17;23.19;53.97
77727;SHT30;68312;53.502;10.030;2023-07-20T10:24:46;22.73;59.80
77727;SHT30;68312;53.502;10.030;2023-07-20T10:27:13;23.24;58.89
77727;SHT30;68312;53.502;10.030;2023-07-20T10:29:41;22.89;53.35
77727;SHT30;68312;53.502;10.030;2023-07-20T10:32:08;21.92;56.22
77727;SHT30;68312;53.502;10.030;2023-07-20T10:34:34;20.67;58.79
77727;SHT30;68312;53.502;10.030;2023-07-20T10:36:59;20.37;59.74
77727;SHT30;68312;53.502;10.030;2023-07-20T10:39:31;21.27;59.21
77727;SHT30;68312;53.502;10.030;2023-07-20T10:42:10;21.92;57.56
77727;SHT30;68312;53.502;10.030;2023-07-20T10:44:40;21.15;55.16
77727;SHT30;68312;53.502;10.030;2023-07-20T10:47:10;20.22;59.42
77727;SHT30;68312;53.502;10.030;2023-07-20T10:49:58;19.51;62.12
77727;SHT30;68312;53.502;10.030;2023-07-20T10:52:24;19.23;62.35
77727;SHT30;68312;53.502;10.030;2023-07-20T10:54:49;19.10;63.47
77727;SHT30;68312;53.502;10.030;2023-07-20T10:57:30;18.59;68.25
77727;SHT30;68312;53.502;10.030;2023-07-20T11:00:13;18.61;67.25
77727;SHT30;68312;53.502;10.030;2023-07-20T11:02:58;18.82;66.74
77727;SHT30;68312;53.502;10.030;2023-07-20T11:05:38;18.88;66.60
77727;SHT30;68312;53.502;10.030;2023-07-20T11:08:10;19.95;67.21
77727;SHT30;68312;53.502;10.030;2023-07-20T11:10:36;21.31;59.70
77727;SHT30;68312;53.502;10.030;2023-07-20T11:13:19;22.47;56.60
77727;SHT30;68312;53.502;10.030;2023-07-20T11:16:05;22.61;56.60
77727;SHT30;68312;53.502;10.030;2023-07-20T11:19:24;20.76;59.65
77727;SHT30;68312;53.502;10.030;2023-07-20T11:21:55;19.26;63.00
77727;SHT30;68312;53.502;10.030;2023-07-20T11:24:21;17.93;67.59
77727;SHT30;68312;53.502;10.030;2023-07-20T11:26:51;17.46;70.89
77727;SHT30;68312;53.502;10.030;2023-07-20T11:29:20;17.35;71.10
77727;SHT30;68312;53.502;10.030;2023-07-20T11:31:47;17.14;70.57
77727;SHT30;68312;53.502;10.030;2023-07-20T11:34:18;17.29;69.21
77727;SHT30;68312;53.502;10.030;2023-07-20T11:36:47;17.47;68.52
77727;SHT30;68312;53.502;10.030;2023-07-20T11:39:15;17.84;69.19
77727;SHT30;68312;53.502;10.030;2023-07-20T11:41:48;18.28;68.54
77727;SHT30;68312;53.502;10.030;2023-07-20T11:44:16;18.69;64.35
77727;SHT30;68312;53.502;10.030;2023-07-20T11:50:22;19.85;63.04
77727;SHT30;68312;53.502;10.030;2023-07-20T11:52:48;20.08;62.58
77727;SHT30;68312;53.502;10.030;2023-07-20T11:55:14;20.41;64.11
77727;SHT30;68312;53.502;10.030;2023-07-20T11:57:40;20.63;60.29
77727;SHT30;68312;53.502;10.030;2023-07-20T12:00:06;21.02;60.40
77727;SHT30;68312;53.502;10.030;2023-07-20T12:02:37;20.88;61.35
77727;SHT30;68312;53.502;10.030;2023-07-20T12:05:05;20.98;59.03
77727;SHT30;68312;53.502;10.030;2023-07-20T12:07:35;20.74;58.68
77727;SHT30;68312;53.502;10.030;2023-07-20T12:10:10;21.80;57.69
77727;SHT30;68312;53.502;10.030;2023-07-20T12:16:17;22.61;53.53
77727;SHT30;68312;53.502;10.030;2023-07-20T12:18:43;22.85;53.82
77727;SHT30;68312;53.502;10.030;2023-07-20T12:21:10;22.21;55.64
77727;SHT30;68312;53.502;10.030;2023-07-20T12:23:38;21.85;53.93
77727;SHT30;68312;53.502;10.030;2023-07-20T12:26:10;22.38;54.62
77727;SHT30;68312;53.502;10.030;2023-07-20T12:28:39;21.89;56.00
77727;SHT30;68312;53.502;10.030;2023-07-20T12:31:09;20.39;58.77
77727;SHT30;68312;53.502;10.030;2023-07-20T12:33:36;19.24;60.82
77727;SHT30;68312;53.502;10.030;2023-07-20T12:36:02;18.63;61.29
77727;SHT30;68312;53.502;10.030;2023-07-20T12:38:28;18.41;58.38
77727;SHT30;68312;53.502;10.030;2023-07-20T12:40:54;18.41;58.86
77727;SHT30;68312;53.502;10.030;2023-07-20T12:43:22;18.69;56.99
77727;SHT30;68312;53.502;10.030;2023-07-20T12:45:48;18.76;58.66
77727;SHT30;68312;53.502;10.030;2023-07-20T12:48:13;18.95;59.65
77727;SHT30;68312;53.502;10.030;2023-07-20T12:50:39;19.49;60.70
77727;SHT30;68312;53.502;10.030;2023-07-20T12:53:05;20.05;61.53
77727;SHT30;68312;53.502;10.030;2023-07-20T12:55:31;20.16;59.21
77727;SHT30;68312;53.502;10.030;2023-07-20T12:57:57;20.34;61.90
77727;SHT30;68312;53.502;10.030;2023-07-20T13:00:22;20.41;57.22
77727;SHT30;68312;53.502;10.030;2023-07-20T13:02:49;20.80;62.95
77727;SHT30;68312;53.502;10.030;2023-07-20T13:05:14;21.87;58.25
77727;SHT30;68312;53.502;10.030;2023-07-20T13:07:41;22.43;53.74
77727;SHT30;68312;53.502;10.030;2023-07-20T13:10:08;23.03;52.80
77727;SHT30;68312;53.502;10.030;2023-07-20T13:12:35;23.36;52.13
77727;SHT30;68312;53.502;10.030;2023-07-20T13:18:41;22.89;56.25
77727;SHT30;68312;53.502;10.030;2023-07-20T13:21:06;21.93;51.91
77727;SHT30;68312;53.502;10.030;2023-07-20T13:23:36;21.31;51.98
77727;SHT30;68312;53.502;10.030;2023-07-20T13:26:02;21.24;56.02
77727;SHT30;68312;53.502;10.030;2023-07-20T13:28:28;20.77;51.36
77727;SHT30;68312;53.502;10.030;2023-07-20T13:30:53;20.49;50.66
77727;SHT30;68312;53.502;10.030;2023-07-20T13:33:19;21.35;51.55
77727;SHT30;68312;53.502;10.030;2023-07-20T13:35:44;22.03;50.45
77727;SHT30;68312;53.502;10.030;2023-07-20T13:38:10;22.82;48.68
77727;SHT30;68312;53.502;10.030;2023-07-20T13:40:35;22.77;45.87
77727;SHT30;68312;53.502;10.030;2023-07-20T13:43:02;22.85;46.26
77727;SHT30;68312;53.502;10.030;2023-07-20T13:45:27;22.07;47.76
77727;SHT30;68312;53.502;10.030;2023-07-20T13:47:52;21.73;47.45
77727;SHT30;68312;53.502;10.030;2023-07-20T13:50:18;21.31;49.14
77727;SHT30;68312;53.502;10.030;2023-07-20T13:52:43;21.34;49.16
77727;SHT30;68312;53.502;10.030;2023-07-20T13:58:50;21.62;49.18
77727;SHT30;68312;53.502;10.030;2023-07-20T14:01:16;21.94;48.23
77727;SHT30;68312;53.502;10.030;2023-07-20T14:03:43;22.38;47.93
77727;SHT30;68312;53.502;10.030;2023-07-20T14:06:08;21.65;48.90
77727;SHT30;68312;53.502;10.030;2023-07-20T14:08:34;21.66;50.43
77727;SHT30;68312;53.502;10.030;2023-07-20T14:10:59;21.50;50.53
77727;SHT30;68312;53.502;10.030;2023-07-20T14:13:25;21.63;49.41
77727;SHT30;68312;53.502;10.030;2023-07-20T14:15:50;22.24;46.45
77727;SHT30;68312;53.502;10.030;2023-07-20T14:18:16;22.88;48.74
77727;SHT30;68312;53.502;10.030;2023-07-20T14:24:22;23.92;44.27
77727;SHT30;68312;53.502;10.030;2023-07-20T14:26:47;24.64;43.08
77727;SHT30;68312;53.502;10.030;2023-07-20T14:29:14;24.57;43.00
77727;SHT30;68312;53.502;10.030;2023-07-20T14:31:39;24.39;44.60
77727;SHT30;68312;53.502;10.030;2023-07-20T14:34:05;24.52;44.18
77727;SHT30;68312;53.502;10.030;2023-07-20T14:36:30;23.46;45.94
77727;SHT30;68312;53.502;10.030;2023-07-20T14:38:55;22.85;47.29
77727;SHT30;68312;53.502;10.030;2023-07-20T14:41:21;22.34;47.97
77727;SHT30;68312;53.502;10.030;2023-07-20T14:44:17;21.77;48.67
77727;SHT30;68312;53.502;10.030;2023-07-20T14:46:43;21.90;47.84
77727;SHT30;68312;53.502;10.030;2023-07-20T14:49:08;22.86;45.11
77727;SHT30;68312;53.502;10.030;2023-07-20T14:51:34;23.24;44.14
77727;SHT30;68312;53.502;10.030;2023-07-20T14:54:01;23.55;43.32
77727;SHT30;68312;53.502;10.030;2023-07-20T14:56:27;24.11;44.09
77727;SHT30;68312;53.502;10.030;2023-07-20T14:58:52;24.08;43.15
77727;SHT30;68312;53.502;10.030;2023-07-20T15:01:18;23.75;44.32
77727;SHT30;68312;53.502;10.030;2023-07-20T15:03:43;24.04;44.19
77727;SHT30;68312;53.502;10.030;2023-07-20T15:06:11;23.54;43.41
77727;SHT30;68312;53.502;10.030;2023-07-20T15:08:37;23.77;45.13
77727;SHT30;68312;53.502;10.030;2023-07-20T15:11:02;24.16;42.77
77727;SHT30;68312;53.502;10.030;2023-07-20T15:13:52;23.75;45.39
77727;SHT30;68312;53.502;10.030;2023-07-20T15:19:59;23.60;45.42
77727;SHT30;68312;53.502;10.030;2023-07-20T15:22:25;22.24;47.89
77727;SHT30;68312;53.502;10.030;2023-07-20T15:24:51;22.20;47.82
77727;SHT30;68312;53.502;10.030;2023-07-20T15:27:16;22.61;47.79
77727;SHT30;68312;53.502;10.030;2023-07-20T15:29:42;22.08;47.79
77727;SHT30;68312;53.502;10.030;2023-07-20T15:32:09;22.10;48.69
77727;SHT30;68312;53.502;10.030;2023-07-20T15:34:35;21.48;49.60
77727;SHT30;68312;53.502;10.030;2023-07-20T15:37:00;20.92;52.16
77727;SHT30;68312;53.502;10.030;2023-07-20T15:39:26;21.17;51.65
77727;SHT30;68312;53.502;10.030;2023-07-20T15:41:52;21.86;49.91
77727;SHT30;68312;53.502;10.030;2023-07-20T15:44:17;22.04;49.45
77727;SHT30;68312;53.502;10.030;2023-07-20T15:46:45;21.93;48.53
77727;SHT30;68312;53.502;10.030;2023-07-20T15:49:11;21.65;49.50
77727;SHT30;68312;53.502;10.030;2023-07-20T15:51:37;21.43;48.58
77727;SHT30;68312;53.502;10.030;2023-07-20T15:54:05;21.28;50.08
77727;SHT30;68312;53.502;10.030;2023-07-20T15:56:33;21.60;51.60
77727;SHT30;68312;53.502;10.030;2023-07-20T15:58:59;21.79;50.38
77727;SHT30;68312;53.502;10.030;2023-07-20T16:01:24;21.59;49.90
77727;SHT30;68312;53.502;10.030;2023-07-20T16:03:50;21.86;50.09
77727;SHT30;68312;53.502;10.030;2023-07-20T16:06:15;21.79;47.00
77727;SHT30;68312;53.502;10.030;2023-07-20T16:08:40;21.48;47.86
77727;SHT30;68312;53.502;10.030;2023-07-20T16:11:06;21.12;51.52